sensor_id;sensor_type;location;lat;lon;timestamp;P1;durP1;ratioP1;P2;durP2;ratioP2
10529;SDS011;5313;48.834;9.228;2023-03-23T00:00:37;4.53;;;2.27;;
10529;SDS011;5313;48.834;9.228;2023-03-23T00:03:02;4.83;;;2.03;;
10529;SDS011;5313;48.834;9.228;2023-03-23T00:05:28;8.17;;;3.80;;
10529;SDS011;5313;48.834;9.228;2023-03-23T00:07:54;4.77;;;2.30;;
10529;SDS011;5313;48.834;9.228;2023-03-23T00:10:20;3.20;;;2.07;;
10529;SDS011;5313;48.834;9.228;2023-03-23T00:12:46;3.17;;;1.73;;
10529;SDS011;5313;48.834;9.228;2023-03-23T00:15:14;2.10;;;1.57;;
10529;SDS011;5313;48.834;9.228;2023-03-23T00:17:41;4.17;;;1.70;;
10529;SDS011;5313;48.834;9.228;2023-03-23T00:20:08;2.43;;;1.50;;
10529;SDS011;5313;48.834;9.228;2023-03-23T00:22:36;2.60;;;1.50;;
10529;SDS011;5313;48.834;9.228;2023-03-23T00:25:02;2.70;;;1.63;;
10529;SDS011;5313;48.834;9.228;2023-03-23T00:27:33;3.07;;;1.43;;
10529;SDS011;5313;48.834;9.228;2023-03-23T00:29:59;2.07;;;1.50;;
10529;SDS011;5313;48.834;9.228;2023-03-23T00:32:25;3.00;;;1.70;;
10529;SDS011;5313;48.834;9.228;2023-03-23T00:34:52;3.40;;;1.60;;
10529;SDS011;5313;48.834;9.228;2023-03-23T00:37:18;3.33;;;1.60;;
10529;SDS011;5313;48.834;9.228;2023-03-23T00:39:44;2.70;;;1.60;;
10529;SDS011;5313;48.834;9.228;2023-03-23T00:42:11;4.23;;;1.70;;
10529;SDS011;5313;48.834;9.228;2023-03-23T00:44:38;2.17;;;1.43;;
10529;SDS011;5313;48.834;9.228;2023-03-23T00:47:05;2.50;;;1.60;;
10529;SDS011;5313;48.834;9.228;2023-03-23T00:49:31;1.97;;;1.40;;
10529;SDS011;5313;48.834;9.228;2023-03-23T00:51:59;3.30;;;1.60;;
10529;SDS011;5313;48.834;9.228;2023-03-23T00:54:25;2.03;;;1.40;;
10529;SDS011;5313;48.834;9.228;2023-03-23T00:56:52;2.10;;;1.60;;
10529;SDS011;5313;48.834;9.228;2023-03-23T00:59:18;4.87;;;1.90;;
10529;SDS011;5313;48.834;9.228;2023-03-23T01:01:44;2.20;;;1.90;;
10529;SDS011;5313;48.834;9.228;2023-03-23T01:04:10;2.63;;;1.60;;
10529;SDS011;5313;48.834;9.228;2023-03-23T01:06:37;4.27;;;1.80;;
10529;SDS011;5313;48.834;9.228;2023-03-23T01:09:09;3.50;;;1.70;;
10529;SDS011;5313;48.834;9.228;2023-03-23T01:11:39;2.13;;;1.60;;
10529;SDS011;5313;48.834;9.228;2023-03-23T01:14:08;2.43;;;1.50;;
10529;SDS011;5313;48.834;9.228;2023-03-23T01:16:34;2.57;;;1.70;;
10529;SDS011;5313;48.834;9.228;2023-03-23T01:19:00;3.07;;;1.53;;
10529;SDS011;5313;48.834;9.228;2023-03-23T01:21:26;2.80;;;1.40;;
10529;SDS011;5313;48.834;9.228;2023-03-23T01:23:52;2.57;;;1.73;;
10529;SDS011;5313;48.834;9.228;2023-03-23T01:26:19;2.63;;;1.67;;
10529;SDS011;5313;48.834;9.228;2023-03-23T01:28:47;2.23;;;1.63;;
10529;SDS011;5313;48.834;9.228;2023-03-23T01:31:14;2.67;;;1.83;;
10529;SDS011;5313;48.834;9.228;2023-03-23T01:33:46;2.60;;;1.80;;
10529;SDS011;5313;48.834;9.228;2023-03-23T01:38:39;4.03;;;2.20;;
10529;SDS011;5313;48.834;9.228;2023-03-23T01:41:05;3.03;;;1.97;;
10529;SDS011;5313;48.834;9.228;2023-03-23T01:43:31;3.70;;;1.80;;
10529;SDS011;5313;48.834;9.228;2023-03-23T01:45:57;2.20;;;1.53;;
10529;SDS011;5313;48.834;9.228;2023-03-23T01:53:26;4.40;;;1.83;;
10529;SDS011;5313;48.834;9.228;2023-03-23T01:56:02;2.57;;;1.80;;
10529;SDS011;5313;48.834;9.228;2023-03-23T01:58:29;3.03;;;2.10;;
10529;SDS011;5313;48.834;9.228;2023-03-23T02:00:58;3.63;;;1.60;;
10529;SDS011;5313;48.834;9.228;2023-03-23T02:03:27;3.13;;;1.83;;
10529;SDS011;5313;48.834;9.228;2023-03-23T02:05:56;3.03;;;1.90;;
10529;SDS011;5313;48.834;9.228;2023-03-23T02:08:26;5.90;;;1.87;;
10529;SDS011;5313;48.834;9.228;2023-03-23T02:10:53;2.60;;;1.80;;
10529;SDS011;5313;48.834;9.228;2023-03-23T02:13:19;2.73;;;2.00;;
10529;SDS011;5313;48.834;9.228;2023-03-23T02:15:50;2.47;;;1.97;;
10529;SDS011;5313;48.834;9.228;2023-03-23T02:18:36;3.57;;;1.90;;
10529;SDS011;5313;48.834;9.228;2023-03-23T02:21:27;4.53;;;2.17;;
10529;SDS011;5313;48.834;9.228;2023-03-23T02:24:18;3.20;;;1.80;;
10529;SDS011;5313;48.834;9.228;2023-03-23T02:30:07;2.30;;;1.83;;
10529;SDS011;5313;48.834;9.228;2023-03-23T02:35:42;5.77;;;2.57;;
10529;SDS011;5313;48.834;9.228;2023-03-23T02:38:16;3.30;;;2.60;;
10529;SDS011;5313;48.834;9.228;2023-03-23T02:40:47;3.63;;;1.80;;
10529;SDS011;5313;48.834;9.228;2023-03-23T02:43:16;3.20;;;2.00;;
10529;SDS011;5313;48.834;9.228;2023-03-23T02:45:45;3.07;;;1.90;;
10529;SDS011;5313;48.834;9.228;2023-03-23T02:48:12;2.53;;;1.87;;
10529;SDS011;5313;48.834;9.228;2023-03-23T02:50:42;2.43;;;1.60;;
10529;SDS011;5313;48.834;9.228;2023-03-23T02:53:13;5.73;;;1.90;;
10529;SDS011;5313;48.834;9.228;2023-03-23T02:55:42;2.47;;;1.80;;
10529;SDS011;5313;48.834;9.228;2023-03-23T02:58:09;2.90;;;2.23;;
10529;SDS011;5313;48.834;9.228;2023-03-23T03:00:36;4.70;;;2.00;;
10529;SDS011;5313;48.834;9.228;2023-03-23T03:03:02;3.00;;;2.00;;
10529;SDS011;5313;48.834;9.228;2023-03-23T03:10:58;3.73;;;1.87;;
10529;SDS011;5313;48.834;9.228;2023-03-23T03:16:23;3.73;;;1.90;;
10529;SDS011;5313;48.834;9.228;2023-03-23T03:21:21;3.30;;;1.70;;
10529;SDS011;5313;48.834;9.228;2023-03-23T03:23:50;2.83;;;1.40;;
10529;SDS011;5313;48.834;9.228;2023-03-23T03:26:19;3.93;;;1.80;;
10529;SDS011;5313;48.834;9.228;2023-03-23T03:28:46;3.00;;;2.20;;
10529;SDS011;5313;48.834;9.228;2023-03-23T03:31:13;4.63;;;2.17;;
10529;SDS011;5313;48.834;9.228;2023-03-23T03:33:43;4.00;;;2.40;;
10529;SDS011;5313;48.834;9.228;2023-03-23T03:36:14;3.63;;;2.23;;
10529;SDS011;5313;48.834;9.228;2023-03-23T03:38:42;3.97;;;2.43;;
10529;SDS011;5313;48.834;9.228;2023-03-23T03:41:09;4.53;;;2.27;;
10529;SDS011;5313;48.834;9.228;2023-03-23T03:43:35;4.60;;;2.40;;
10529;SDS011;5313;48.834;9.228;2023-03-23T03:46:01;3.60;;;2.40;;
10529;SDS011;5313;48.834;9.228;2023-03-23T03:48:26;6.60;;;2.10;;
10529;SDS011;5313;48.834;9.228;2023-03-23T03:50:52;3.97;;;2.17;;
10529;SDS011;5313;48.834;9.228;2023-03-23T03:53:21;4.53;;;2.30;;
10529;SDS011;5313;48.834;9.228;2023-03-23T03:55:47;3.43;;;2.00;;
10529;SDS011;5313;48.834;9.228;2023-03-23T03:58:14;2.83;;;2.00;;
10529;SDS011;5313;48.834;9.228;2023-03-23T04:00:40;3.20;;;2.03;;
10529;SDS011;5313;48.834;9.228;2023-03-23T04:03:06;3.60;;;1.83;;
10529;SDS011;5313;48.834;9.228;2023-03-23T04:05:34;2.50;;;1.60;;
10529;SDS011;5313;48.834;9.228;2023-03-23T04:08:02;2.53;;;1.70;;
10529;SDS011;5313;48.834;9.228;2023-03-23T04:10:29;3.50;;;2.03;;
10529;SDS011;5313;48.834;9.228;2023-03-23T04:12:56;3.37;;;1.90;;
10529;SDS011;5313;48.834;9.228;2023-03-23T04:15:22;2.27;;;1.60;;
10529;SDS011;5313;48.834;9.228;2023-03-23T04:17:48;5.37;;;1.90;;
10529;SDS011;5313;48.834;9.228;2023-03-23T04:20:15;3.73;;;2.10;;
10529;SDS011;5313;48.834;9.228;2023-03-23T04:22:43;3.77;;;1.90;;
10529;SDS011;5313;48.834;9.228;2023-03-23T04:25:11;2.30;;;1.80;;
10529;SDS011;5313;48.834;9.228;2023-03-23T04:27:37;2.93;;;1.80;;
10529;SDS011;5313;48.834;9.228;2023-03-23T04:30:04;3.03;;;2.00;;
10529;SDS011;5313;48.834;9.228;2023-03-23T04:32:31;3.77;;;2.03;;
10529;SDS011;5313;48.834;9.228;2023-03-23T04:34:57;2.53;;;1.80;;
10529;SDS011;5313;48.834;9.228;2023-03-23T04:37:26;3.83;;;2.30;;
10529;SDS011;5313;48.834;9.228;2023-03-23T04:39:56;2.63;;;1.97;;
10529;SDS011;5313;48.834;9.228;2023-03-23T04:42:32;2.27;;;1.67;;
10529;SDS011;5313;48.834;9.228;2023-03-23T04:44:58;5.00;;;1.80;;
10529;SDS011;5313;48.834;9.228;2023-03-23T04:47:24;2.63;;;1.70;;
10529;SDS011;5313;48.834;9.228;2023-03-23T04:49:54;2.53;;;1.70;;
10529;SDS011;5313;48.834;9.228;2023-03-23T04:52:21;2.37;;;1.90;;
10529;SDS011;5313;48.834;9.228;2023-03-23T04:54:46;4.10;;;1.90;;
10529;SDS011;5313;48.834;9.228;2023-03-23T04:57:12;2.27;;;1.53;;
10529;SDS011;5313;48.834;9.228;2023-03-23T04:59:41;3.00;;;2.00;;
10529;SDS011;5313;48.834;9.228;2023-03-23T05:02:08;3.17;;;1.63;;
10529;SDS011;5313;48.834;9.228;2023-03-23T05:04:34;2.20;;;1.53;;
10529;SDS011;5313;48.834;9.228;2023-03-23T05:07:02;2.13;;;1.60;;
10529;SDS011;5313;48.834;9.228;2023-03-23T05:09:28;3.07;;;1.60;;
10529;SDS011;5313;48.834;9.228;2023-03-23T05:11:53;5.23;;;1.80;;
10529;SDS011;5313;48.834;9.228;2023-03-23T05:14:19;3.23;;;1.60;;
10529;SDS011;5313;48.834;9.228;2023-03-23T05:16:46;4.30;;;1.83;;
10529;SDS011;5313;48.834;9.228;2023-03-23T05:19:13;2.43;;;1.67;;
10529;SDS011;5313;48.834;9.228;2023-03-23T05:21:39;3.83;;;1.77;;
10529;SDS011;5313;48.834;9.228;2023-03-23T05:24:05;3.70;;;1.73;;
10529;SDS011;5313;48.834;9.228;2023-03-23T05:26:31;2.67;;;1.73;;
10529;SDS011;5313;48.834;9.228;2023-03-23T05:28:57;3.07;;;2.00;;
10529;SDS011;5313;48.834;9.228;2023-03-23T05:31:23;3.63;;;1.80;;
10529;SDS011;5313;48.834;9.228;2023-03-23T05:33:49;4.37;;;1.77;;
10529;SDS011;5313;48.834;9.228;2023-03-23T05:36:15;3.53;;;1.93;;
10529;SDS011;5313;48.834;9.228;2023-03-23T05:38:41;4.73;;;2.27;;
10529;SDS011;5313;48.834;9.228;2023-03-23T05:41:12;5.20;;;2.20;;
10529;SDS011;5313;48.834;9.228;2023-03-23T05:43:39;3.20;;;2.20;;
10529;SDS011;5313;48.834;9.228;2023-03-23T05:46:04;4.97;;;2.30;;
10529;SDS011;5313;48.834;9.228;2023-03-23T05:48:31;3.13;;;1.70;;
10529;SDS011;5313;48.834;9.228;2023-03-23T05:50:58;2.20;;;1.57;;
10529;SDS011;5313;48.834;9.228;2023-03-23T05:53:23;3.90;;;1.70;;
10529;SDS011;5313;48.834;9.228;2023-03-23T05:55:49;3.97;;;1.60;;
10529;SDS011;5313;48.834;9.228;2023-03-23T05:58:15;2.97;;;1.40;;
10529;SDS011;5313;48.834;9.228;2023-03-23T06:00:40;2.03;;;1.50;;
10529;SDS011;5313;48.834;9.228;2023-03-23T06:03:10;2.73;;;1.70;;
10529;SDS011;5313;48.834;9.228;2023-03-23T06:05:36;2.20;;;1.50;;
10529;SDS011;5313;48.834;9.228;2023-03-23T06:08:08;2.10;;;1.50;;
10529;SDS011;5313;48.834;9.228;2023-03-23T06:10:34;2.87;;;1.47;;
10529;SDS011;5313;48.834;9.228;2023-03-23T06:13:01;1.93;;;1.40;;
10529;SDS011;5313;48.834;9.228;2023-03-23T06:15:27;5.67;;;1.70;;
10529;SDS011;5313;48.834;9.228;2023-03-23T06:17:57;3.03;;;1.50;;
10529;SDS011;5313;48.834;9.228;2023-03-23T06:20:24;2.43;;;1.63;;
10529;SDS011;5313;48.834;9.228;2023-03-23T06:22:49;4.33;;;1.60;;
10529;SDS011;5313;48.834;9.228;2023-03-23T06:25:17;5.37;;;1.60;;
10529;SDS011;5313;48.834;9.228;2023-03-23T06:27:42;5.50;;;1.73;;
10529;SDS011;5313;48.834;9.228;2023-03-23T06:30:08;3.60;;;1.60;;
10529;SDS011;5313;48.834;9.228;2023-03-23T06:32:35;5.63;;;1.50;;
10529;SDS011;5313;48.834;9.228;2023-03-23T06:35:01;2.57;;;1.30;;
10529;SDS011;5313;48.834;9.228;2023-03-23T06:37:28;2.67;;;1.20;;
10529;SDS011;5313;48.834;9.228;2023-03-23T06:39:54;4.00;;;1.30;;
10529;SDS011;5313;48.834;9.228;2023-03-23T06:42:19;1.83;;;1.50;;
10529;SDS011;5313;48.834;9.228;2023-03-23T06:44:49;4.27;;;1.30;;
10529;SDS011;5313;48.834;9.228;2023-03-23T06:47:15;6.27;;;1.40;;
10529;SDS011;5313;48.834;9.228;2023-03-23T06:49:40;2.63;;;1.30;;
10529;SDS011;5313;48.834;9.228;2023-03-23T06:52:06;3.33;;;1.80;;
10529;SDS011;5313;48.834;9.228;2023-03-23T06:54:32;3.60;;;1.47;;
10529;SDS011;5313;48.834;9.228;2023-03-23T06:56:57;2.40;;;1.33;;
10529;SDS011;5313;48.834;9.228;2023-03-23T06:59:23;3.03;;;1.50;;
10529;SDS011;5313;48.834;9.228;2023-03-23T07:01:48;2.43;;;1.60;;
10529;SDS011;5313;48.834;9.228;2023-03-23T07:04:14;6.03;;;2.30;;
10529;SDS011;5313;48.834;9.228;2023-03-23T07:06:41;8.47;;;2.37;;
10529;SDS011;5313;48.834;9.228;2023-03-23T07:09:06;4.27;;;1.83;;
10529;SDS011;5313;48.834;9.228;2023-03-23T07:11:32;3.93;;;2.03;;
10529;SDS011;5313;48.834;9.228;2023-03-23T07:13:58;3.30;;;1.70;;
10529;SDS011;5313;48.834;9.228;2023-03-23T07:16:23;4.27;;;1.97;;
10529;SDS011;5313;48.834;9.228;2023-03-23T07:18:49;4.80;;;2.10;;
10529;SDS011;5313;48.834;9.228;2023-03-23T07:21:14;4.47;;;1.90;;
10529;SDS011;5313;48.834;9.228;2023-03-23T07:23:40;6.00;;;1.60;;
10529;SDS011;5313;48.834;9.228;2023-03-23T07:26:06;2.63;;;1.63;;
10529;SDS011;5313;48.834;9.228;2023-03-23T07:28:32;4.43;;;1.80;;
10529;SDS011;5313;48.834;9.228;2023-03-23T07:30:58;6.13;;;1.93;;
10529;SDS011;5313;48.834;9.228;2023-03-23T07:33:23;2.30;;;1.70;;
10529;SDS011;5313;48.834;9.228;2023-03-23T07:35:49;2.27;;;1.50;;
10529;SDS011;5313;48.834;9.228;2023-03-23T07:38:14;3.23;;;1.57;;
10529;SDS011;5313;48.834;9.228;2023-03-23T07:40:40;2.03;;;1.53;;
10529;SDS011;5313;48.834;9.228;2023-03-23T07:43:06;2.77;;;1.47;;
10529;SDS011;5313;48.834;9.228;2023-03-23T07:45:32;2.10;;;1.33;;
10529;SDS011;5313;48.834;9.228;2023-03-23T07:47:58;3.00;;;1.30;;
10529;SDS011;5313;48.834;9.228;2023-03-23T07:50:24;4.00;;;1.70;;
10529;SDS011;5313;48.834;9.228;2023-03-23T07:52:54;4.57;;;1.60;;
10529;SDS011;5313;48.834;9.228;2023-03-23T07:55:20;2.10;;;1.27;;
10529;SDS011;5313;48.834;9.228;2023-03-23T07:57:46;3.20;;;1.63;;
10529;SDS011;5313;48.834;9.228;2023-03-23T08:00:14;2.70;;;1.40;;
10529;SDS011;5313;48.834;9.228;2023-03-23T08:02:42;2.20;;;1.50;;
10529;SDS011;5313;48.834;9.228;2023-03-23T08:05:07;2.37;;;1.60;;
10529;SDS011;5313;48.834;9.228;2023-03-23T08:07:33;3.03;;;1.50;;
10529;SDS011;5313;48.834;9.228;2023-03-23T08:09:59;4.23;;;1.67;;
10529;SDS011;5313;48.834;9.228;2023-03-23T08:12:25;2.53;;;1.73;;
10529;SDS011;5313;48.834;9.228;2023-03-23T08:14:52;4.83;;;1.87;;
10529;SDS011;5313;48.834;9.228;2023-03-23T08:17:18;3.07;;;2.00;;
10529;SDS011;5313;48.834;9.228;2023-03-23T08:19:44;3.27;;;1.60;;
10529;SDS011;5313;48.834;9.228;2023-03-23T08:22:10;2.83;;;1.53;;
10529;SDS011;5313;48.834;9.228;2023-03-23T08:24:36;1.87;;;1.47;;
10529;SDS011;5313;48.834;9.228;2023-03-23T08:27:02;3.57;;;1.73;;
10529;SDS011;5313;48.834;9.228;2023-03-23T08:29:28;4.20;;;1.60;;
10529;SDS011;5313;48.834;9.228;2023-03-23T08:31:53;2.87;;;1.77;;
10529;SDS011;5313;48.834;9.228;2023-03-23T08:34:19;4.40;;;1.70;;
10529;SDS011;5313;48.834;9.228;2023-03-23T08:36:45;2.67;;;1.77;;
10529;SDS011;5313;48.834;9.228;2023-03-23T08:39:11;2.23;;;1.50;;
10529;SDS011;5313;48.834;9.228;2023-03-23T08:41:39;3.10;;;1.47;;
10529;SDS011;5313;48.834;9.228;2023-03-23T08:44:05;2.77;;;1.60;;
10529;SDS011;5313;48.834;9.228;2023-03-23T08:46:30;3.90;;;1.53;;
10529;SDS011;5313;48.834;9.228;2023-03-23T08:48:56;2.27;;;1.33;;
10529;SDS011;5313;48.834;9.228;2023-03-23T08:51:21;2.20;;;1.40;;
10529;SDS011;5313;48.834;9.228;2023-03-23T08:53:47;3.13;;;1.50;;
10529;SDS011;5313;48.834;9.228;2023-03-23T08:56:12;2.30;;;1.37;;
10529;SDS011;5313;48.834;9.228;2023-03-23T08:58:39;6.00;;;1.40;;
10529;SDS011;5313;48.834;9.228;2023-03-23T09:01:05;3.47;;;1.40;;
10529;SDS011;5313;48.834;9.228;2023-03-23T09:03:32;2.03;;;1.50;;
10529;SDS011;5313;48.834;9.228;2023-03-23T09:06:00;1.83;;;1.40;;
10529;SDS011;5313;48.834;9.228;2023-03-23T09:08:28;3.90;;;1.50;;
10529;SDS011;5313;48.834;9.228;2023-03-23T09:11:04;1.63;;;1.50;;
10529;SDS011;5313;48.834;9.228;2023-03-23T09:13:32;3.00;;;1.70;;
10529;SDS011;5313;48.834;9.228;2023-03-23T09:15:58;2.00;;;1.50;;
10529;SDS011;5313;48.834;9.228;2023-03-23T09:18:24;2.00;;;1.50;;
10529;SDS011;5313;48.834;9.228;2023-03-23T09:20:50;2.37;;;1.50;;
10529;SDS011;5313;48.834;9.228;2023-03-23T09:23:17;2.60;;;1.50;;
10529;SDS011;5313;48.834;9.228;2023-03-23T09:25:43;2.13;;;1.13;;
10529;SDS011;5313;48.834;9.228;2023-03-23T09:28:09;2.13;;;1.30;;
10529;SDS011;5313;48.834;9.228;2023-03-23T09:30:35;5.83;;;1.60;;
10529;SDS011;5313;48.834;9.228;2023-03-23T09:33:03;1.70;;;1.40;;
10529;SDS011;5313;48.834;9.228;2023-03-23T09:35:30;1.97;;;1.70;;
10529;SDS011;5313;48.834;9.228;2023-03-23T09:37:57;3.17;;;1.50;;
10529;SDS011;5313;48.834;9.228;2023-03-23T09:40:28;3.70;;;1.70;;
10529;SDS011;5313;48.834;9.228;2023-03-23T09:53:48;2.77;;;1.63;;
10529;SDS011;5313;48.834;9.228;2023-03-23T09:56:18;2.63;;;1.40;;
10529;SDS011;5313;48.834;9.228;2023-03-23T09:58:53;1.80;;;1.40;;
10529;SDS011;5313;48.834;9.228;2023-03-23T10:01:35;1.50;;;1.30;;
10529;SDS011;5313;48.834;9.228;2023-03-23T10:06:58;3.57;;;1.43;;
10529;SDS011;5313;48.834;9.228;2023-03-23T10:09:25;2.47;;;1.50;;
10529;SDS011;5313;48.834;9.228;2023-03-23T10:12:07;2.43;;;1.27;;
10529;SDS011;5313;48.834;9.228;2023-03-23T10:17:26;1.53;;;1.43;;
10529;SDS011;5313;48.834;9.228;2023-03-23T10:22:32;2.10;;;1.20;;
10529;SDS011;5313;48.834;9.228;2023-03-23T10:27:52;1.47;;;1.10;;
10529;SDS011;5313;48.834;9.228;2023-03-23T10:33:17;2.00;;;1.10;;
10529;SDS011;5313;48.834;9.228;2023-03-23T10:35:47;1.67;;;1.20;;
10529;SDS011;5313;48.834;9.228;2023-03-23T10:38:24;1.27;;;1.17;;
10529;SDS011;5313;48.834;9.228;2023-03-23T10:40:58;1.77;;;1.30;;
10529;SDS011;5313;48.834;9.228;2023-03-23T10:43:30;1.93;;;1.50;;
10529;SDS011;5313;48.834;9.228;2023-03-23T10:48:43;1.20;;;1.10;;
10529;SDS011;5313;48.834;9.228;2023-03-23T10:51:11;1.20;;;1.10;;
10529;SDS011;5313;48.834;9.228;2023-03-23T10:53:42;1.40;;;1.30;;
10529;SDS011;5313;48.834;9.228;2023-03-23T10:56:28;2.00;;;1.30;;
10529;SDS011;5313;48.834;9.228;2023-03-23T10:59:10;2.47;;;1.30;;
10529;SDS011;5313;48.834;9.228;2023-03-23T11:01:52;1.30;;;1.00;;
10529;SDS011;5313;48.834;9.228;2023-03-23T11:04:20;1.93;;;1.20;;
10529;SDS011;5313;48.834;9.228;2023-03-23T11:06:48;1.10;;;1.00;;
10529;SDS011;5313;48.834;9.228;2023-03-23T11:09:18;1.77;;;1.30;;
10529;SDS011;5313;48.834;9.228;2023-03-23T11:11:49;2.43;;;1.60;;
10529;SDS011;5313;48.834;9.228;2023-03-23T11:14:17;1.50;;;1.30;;
10529;SDS011;5313;48.834;9.228;2023-03-23T11:16:52;1.50;;;1.13;;
10529;SDS011;5313;48.834;9.228;2023-03-23T11:19:26;2.70;;;1.27;;
10529;SDS011;5313;48.834;9.228;2023-03-23T11:21:54;2.70;;;1.60;;
10529;SDS011;5313;48.834;9.228;2023-03-23T11:24:25;1.80;;;1.40;;
10529;SDS011;5313;48.834;9.228;2023-03-23T11:26:52;2.40;;;1.30;;
10529;SDS011;5313;48.834;9.228;2023-03-23T11:29:22;1.10;;;1.00;;
10529;SDS011;5313;48.834;9.228;2023-03-23T11:34:30;2.23;;;1.40;;
10529;SDS011;5313;48.834;9.228;2023-03-23T11:37:01;2.00;;;1.30;;
10529;SDS011;5313;48.834;9.228;2023-03-23T11:39:34;3.00;;;1.50;;
10529;SDS011;5313;48.834;9.228;2023-03-23T11:45:34;2.40;;;1.20;;
10529;SDS011;5313;48.834;9.228;2023-03-23T11:48:18;2.03;;;1.20;;
10529;SDS011;5313;48.834;9.228;2023-03-23T11:51:08;2.63;;;1.27;;
10529;SDS011;5313;48.834;9.228;2023-03-23T11:53:53;1.63;;;1.17;;
10529;SDS011;5313;48.834;9.228;2023-03-23T11:56:30;1.73;;;1.50;;
10529;SDS011;5313;48.834;9.228;2023-03-23T11:58:56;2.93;;;1.40;;
10529;SDS011;5313;48.834;9.228;2023-03-23T12:07:47;1.97;;;1.33;;
10529;SDS011;5313;48.834;9.228;2023-03-23T12:18:55;1.80;;;1.40;;
10529;SDS011;5313;48.834;9.228;2023-03-23T12:27:19;1.50;;;1.20;;
10529;SDS011;5313;48.834;9.228;2023-03-23T12:30:04;2.13;;;1.40;;
10529;SDS011;5313;48.834;9.228;2023-03-23T12:40:44;2.03;;;1.50;;
10529;SDS011;5313;48.834;9.228;2023-03-23T12:43:26;2.60;;;1.43;;
10529;SDS011;5313;48.834;9.228;2023-03-23T12:51:32;2.47;;;1.40;;
10529;SDS011;5313;48.834;9.228;2023-03-23T12:54:12;3.50;;;1.30;;
10529;SDS011;5313;48.834;9.228;2023-03-23T12:59:22;1.87;;;1.30;;
10529;SDS011;5313;48.834;9.228;2023-03-23T13:02:11;1.87;;;1.37;;
10529;SDS011;5313;48.834;9.228;2023-03-23T13:05:26;1.60;;;1.50;;
10529;SDS011;5313;48.834;9.228;2023-03-23T13:08:09;2.03;;;1.40;;
10529;SDS011;5313;48.834;9.228;2023-03-23T13:10:47;2.47;;;1.20;;
10529;SDS011;5313;48.834;9.228;2023-03-23T13:13:17;3.03;;;1.93;;
10529;SDS011;5313;48.834;9.228;2023-03-23T13:15:56;2.20;;;1.60;;
10529;SDS011;5313;48.834;9.228;2023-03-23T13:18:31;3.63;;;1.67;;
10529;SDS011;5313;48.834;9.228;2023-03-23T13:21:30;2.20;;;1.67;;
10529;SDS011;5313;48.834;9.228;2023-03-23T13:24:04;3.37;;;1.97;;
10529;SDS011;5313;48.834;9.228;2023-03-23T13:26:37;2.10;;;1.50;;
10529;SDS011;5313;48.834;9.228;2023-03-23T13:29:10;3.37;;;1.60;;
10529;SDS011;5313;48.834;9.228;2023-03-23T13:31:39;2.93;;;1.80;;
10529;SDS011;5313;48.834;9.228;2023-03-23T13:34:11;3.53;;;1.73;;
10529;SDS011;5313;48.834;9.228;2023-03-23T13:37:02;2.40;;;1.57;;
10529;SDS011;5313;48.834;9.228;2023-03-23T13:39:34;3.30;;;1.60;;
10529;SDS011;5313;48.834;9.228;2023-03-23T13:44:55;2.10;;;1.70;;
10529;SDS011;5313;48.834;9.228;2023-03-23T13:47:39;3.80;;;2.37;;
10529;SDS011;5313;48.834;9.228;2023-03-23T14:03:09;2.27;;;1.40;;
10529;SDS011;5313;48.834;9.228;2023-03-23T14:05:45;6.17;;;1.50;;
10529;SDS011;5313;48.834;9.228;2023-03-23T14:11:02;1.83;;;1.60;;
10529;SDS011;5313;48.834;9.228;2023-03-23T14:14:02;3.00;;;1.97;;
10529;SDS011;5313;48.834;9.228;2023-03-23T14:19:22;2.13;;;1.50;;
10529;SDS011;5313;48.834;9.228;2023-03-23T14:21:54;2.10;;;1.50;;
10529;SDS011;5313;48.834;9.228;2023-03-23T14:24:27;5.50;;;1.87;;
10529;SDS011;5313;48.834;9.228;2023-03-23T14:27:10;3.23;;;1.57;;
10529;SDS011;5313;48.834;9.228;2023-03-23T14:29:37;2.37;;;1.67;;
10529;SDS011;5313;48.834;9.228;2023-03-23T14:32:04;2.53;;;1.50;;
10529;SDS011;5313;48.834;9.228;2023-03-23T14:34:32;2.03;;;1.57;;
10529;SDS011;5313;48.834;9.228;2023-03-23T14:36:59;3.37;;;1.60;;
10529;SDS011;5313;48.834;9.228;2023-03-23T14:39:26;4.40;;;1.33;;
10529;SDS011;5313;48.834;9.228;2023-03-23T14:42:01;2.57;;;1.77;;
10529;SDS011;5313;48.834;9.228;2023-03-23T14:44:34;3.03;;;1.63;;
10529;SDS011;5313;48.834;9.228;2023-03-23T14:47:04;3.67;;;1.70;;
10529;SDS011;5313;48.834;9.228;2023-03-23T14:49:36;2.60;;;1.70;;
10529;SDS011;5313;48.834;9.228;2023-03-23T14:52:16;2.00;;;1.63;;
10529;SDS011;5313;48.834;9.228;2023-03-23T14:54:43;2.13;;;1.40;;
10529;SDS011;5313;48.834;9.228;2023-03-23T14:57:26;2.67;;;1.57;;
10529;SDS011;5313;48.834;9.228;2023-03-23T14:59:53;3.07;;;1.50;;
10529;SDS011;5313;48.834;9.228;2023-03-23T15:02:53;2.47;;;1.60;;
10529;SDS011;5313;48.834;9.228;2023-03-23T15:05:15;2.27;;;1.50;;
10529;SDS011;5313;48.834;9.228;2023-03-23T15:07:50;3.43;;;1.67;;
10529;SDS011;5313;48.834;9.228;2023-03-23T15:10:19;2.10;;;1.30;;
10529;SDS011;5313;48.834;9.228;2023-03-23T15:12:47;1.90;;;1.60;;
10529;SDS011;5313;48.834;9.228;2023-03-23T15:15:25;1.63;;;1.37;;
10529;SDS011;5313;48.834;9.228;2023-03-23T15:17:56;2.30;;;1.60;;
10529;SDS011;5313;48.834;9.228;2023-03-23T15:20:25;2.80;;;1.30;;
10529;SDS011;5313;48.834;9.228;2023-03-23T15:22:53;2.70;;;1.60;;
10529;SDS011;5313;48.834;9.228;2023-03-23T15:25:20;2.13;;;1.53;;
10529;SDS011;5313;48.834;9.228;2023-03-23T15:27:51;1.97;;;1.40;;
10529;SDS011;5313;48.834;9.228;2023-03-23T15:32:47;2.47;;;1.73;;
10529;SDS011;5313;48.834;9.228;2023-03-23T15:35:18;5.17;;;1.63;;
10529;SDS011;5313;48.834;9.228;2023-03-23T15:37:47;2.27;;;1.50;;
10529;SDS011;5313;48.834;9.228;2023-03-23T15:40:14;3.83;;;1.97;;
10529;SDS011;5313;48.834;9.228;2023-03-23T15:42:41;3.57;;;1.60;;
10529;SDS011;5313;48.834;9.228;2023-03-23T15:52:51;5.00;;;1.50;;
10529;SDS011;5313;48.834;9.228;2023-03-23T15:57:46;2.53;;;1.50;;
10529;SDS011;5313;48.834;9.228;2023-03-23T16:00:12;3.73;;;1.80;;
10529;SDS011;5313;48.834;9.228;2023-03-23T16:02:38;2.40;;;1.73;;
10529;SDS011;5313;48.834;9.228;2023-03-23T16:05:03;2.20;;;1.63;;
10529;SDS011;5313;48.834;9.228;2023-03-23T16:07:30;2.53;;;1.50;;
10529;SDS011;5313;48.834;9.228;2023-03-23T16:09:56;2.43;;;1.50;;
10529;SDS011;5313;48.834;9.228;2023-03-23T16:12:21;2.23;;;1.63;;
10529;SDS011;5313;48.834;9.228;2023-03-23T16:14:47;4.07;;;1.60;;
10529;SDS011;5313;48.834;9.228;2023-03-23T16:17:15;2.27;;;1.70;;
10529;SDS011;5313;48.834;9.228;2023-03-23T16:19:43;2.93;;;1.43;;
10529;SDS011;5313;48.834;9.228;2023-03-23T16:22:08;2.53;;;1.70;;
10529;SDS011;5313;48.834;9.228;2023-03-23T16:24:34;3.27;;;1.90;;
10529;SDS011;5313;48.834;9.228;2023-03-23T16:27:00;3.13;;;1.70;;
10529;SDS011;5313;48.834;9.228;2023-03-23T16:29:25;5.53;;;1.70;;
10529;SDS011;5313;48.834;9.228;2023-03-23T16:31:51;2.27;;;1.40;;
10529;SDS011;5313;48.834;9.228;2023-03-23T16:34:17;1.83;;;1.43;;
10529;SDS011;5313;48.834;9.228;2023-03-23T16:36:42;3.00;;;1.60;;
10529;SDS011;5313;48.834;9.228;2023-03-23T16:39:10;3.80;;;1.80;;
10529;SDS011;5313;48.834;9.228;2023-03-23T16:41:36;2.43;;;1.50;;
10529;SDS011;5313;48.834;9.228;2023-03-23T16:44:01;2.20;;;1.53;;
10529;SDS011;5313;48.834;9.228;2023-03-23T16:46:27;2.60;;;1.50;;
10529;SDS011;5313;48.834;9.228;2023-03-23T16:48:53;2.10;;;1.80;;
10529;SDS011;5313;48.834;9.228;2023-03-23T16:51:19;2.57;;;1.63;;
10529;SDS011;5313;48.834;9.228;2023-03-23T16:53:44;2.90;;;1.50;;
10529;SDS011;5313;48.834;9.228;2023-03-23T16:56:10;3.70;;;1.60;;
10529;SDS011;5313;48.834;9.228;2023-03-23T16:58:36;2.27;;;1.60;;
10529;SDS011;5313;48.834;9.228;2023-03-23T17:01:01;2.47;;;1.57;;
10529;SDS011;5313;48.834;9.228;2023-03-23T17:03:27;2.23;;;1.37;;
10529;SDS011;5313;48.834;9.228;2023-03-23T17:05:53;2.43;;;1.53;;
10529;SDS011;5313;48.834;9.228;2023-03-23T17:08:19;2.10;;;1.47;;
10529;SDS011;5313;48.834;9.228;2023-03-23T17:10:45;2.00;;;1.47;;
10529;SDS011;5313;48.834;9.228;2023-03-23T17:13:11;2.00;;;1.40;;
10529;SDS011;5313;48.834;9.228;2023-03-23T17:15:37;2.00;;;1.60;;
10529;SDS011;5313;48.834;9.228;2023-03-23T17:18:04;3.80;;;1.60;;
10529;SDS011;5313;48.834;9.228;2023-03-23T17:20:30;2.87;;;1.73;;